createdAt,value
2023-03-02T00:00:08.918Z,23.21
2023-03-02T00:01:08.854Z,23.20
2023-03-02T00:02:08.825Z,23.20
2023-03-02T00:03:08.754Z,23.20
2023-03-02T00:04:08.715Z,23.19
2023-03-02T00:05:08.654Z,23.19
2023-03-02T00:06:08.639Z,23.20
2023-03-02T00:54:49.169Z,22.77
2023-03-02T00:55:50.135Z,22.97
2023-03-02T00:56:50.141Z,23.03
2023-03-02T00:57:50.118Z,23.07
2023-03-02T00:58:50.110Z,23.09
2023-03-02T00:59:50.099Z,23.11
2023-03-02T01:00:50.085Z,23.13
2023-03-02T01:01:50.067Z,23.14
2023-03-02T01:02:50.220Z,23.15
2023-03-02T01:03:50.099Z,23.15
2023-03-02T01:04:50.044Z,23.14
2023-03-02T01:05:50.035Z,23.15
2023-03-02T01:06:50.032Z,23.16
2023-03-02T01:07:50.022Z,23.16
2023-03-02T01:08:50.025Z,23.16
2023-03-02T01:09:50.004Z,23.16
2023-03-02T01:10:50.015Z,23.16
2023-03-02T01:11:49.986Z,23.15
2023-03-02T01:12:49.971Z,23.16
2023-03-02T01:13:49.964Z,23.15
2023-03-02T01:14:49.951Z,23.15
2023-03-02T01:15:50.046Z,23.15
2023-03-02T01:16:49.939Z,23.15
2023-03-02T01:17:49.930Z,23.15
2023-03-02T01:18:49.923Z,23.15
2023-03-02T01:19:49.905Z,23.15
2023-03-02T01:20:49.895Z,23.15
2023-03-02T01:21:49.881Z,23.15
2023-03-02T01:22:49.870Z,23.16
2023-03-02T01:23:49.850Z,23.15
2023-03-02T01:24:49.851Z,23.15
2023-03-02T01:25:49.830Z,23.14
2023-03-02T01:26:49.849Z,23.15
2023-03-02T01:27:49.817Z,23.15
2023-03-02T01:28:50.120Z,23.15
2023-03-02T01:29:49.773Z,23.15
2023-03-02T01:30:49.772Z,23.14
2023-03-02T01:31:50.027Z,23.14
2023-03-02T01:32:49.745Z,23.14
2023-03-02T01:33:49.741Z,23.15
2023-03-02T01:34:49.725Z,23.15
2023-03-02T01:35:49.762Z,23.15
2023-03-02T01:36:49.696Z,23.15
2023-03-02T01:37:49.679Z,23.15
2023-03-02T01:38:49.804Z,23.15
2023-03-02T01:39:49.660Z,23.16
2023-03-02T01:40:49.649Z,23.15
2023-03-02T01:41:49.629Z,23.14
2023-03-02T01:42:49.639Z,23.14
2023-03-02T01:43:49.612Z,23.13
2023-03-02T01:44:49.583Z,23.13
2023-03-02T01:45:49.580Z,23.13
2023-03-02T01:46:49.560Z,23.13
2023-03-02T01:47:49.551Z,23.13
2023-03-02T01:48:49.545Z,23.12
2023-03-02T01:49:49.533Z,23.12
2023-03-02T01:50:49.530Z,23.12
2023-03-02T01:51:49.514Z,23.12
2023-03-02T01:52:49.514Z,23.12
2023-03-02T01:53:49.490Z,23.11
2023-03-02T01:54:49.478Z,23.11
2023-03-02T01:55:49.481Z,23.11
2023-03-02T01:56:49.460Z,23.11
2023-03-02T01:57:49.455Z,23.11
2023-03-02T01:58:49.469Z,23.11
2023-03-02T01:59:49.425Z,23.12
2023-03-02T02:00:49.433Z,23.12
2023-03-02T02:01:49.414Z,23.11
2023-03-02T02:02:49.399Z,23.11
2023-03-02T02:03:49.414Z,23.12
2023-03-02T02:04:49.376Z,23.11
2023-03-02T02:05:49.366Z,23.12
2023-03-02T02:06:49.377Z,23.12
2023-03-02T02:07:49.343Z,23.11
2023-03-02T02:08:49.337Z,23.12
2023-03-02T02:09:49.320Z,23.12
2023-03-02T02:10:49.317Z,23.11
2023-03-02T02:11:49.308Z,23.12
2023-03-02T02:12:49.302Z,23.11
2023-03-02T02:13:49.284Z,23.11
2023-03-02T02:14:49.300Z,23.11
2023-03-02T02:15:49.268Z,23.11
2023-03-02T02:16:49.358Z,23.11
2023-03-02T02:17:49.258Z,23.11
2023-03-02T02:18:49.248Z,23.10
2023-03-02T02:19:49.240Z,23.10
2023-03-02T02:20:49.225Z,23.10
2023-03-02T02:21:49.241Z,23.10
2023-03-02T02:22:49.215Z,23.10
2023-03-02T02:23:49.226Z,23.10
2023-03-02T02:24:49.199Z,23.11
2023-03-02T02:25:49.189Z,23.11
2023-03-02T02:26:49.181Z,23.11
2023-03-02T02:27:49.168Z,23.11
2023-03-02T02:28:49.172Z,23.10
2023-03-02T02:29:49.142Z,23.10
2023-03-02T02:30:49.166Z,23.10
2023-03-02T02:31:49.184Z,23.10
2023-03-02T02:32:49.177Z,23.11
2023-03-02T02:33:49.105Z,23.10
2023-03-02T02:34:49.090Z,23.10
2023-03-02T02:35:49.091Z,23.10
2023-03-02T02:36:49.055Z,23.11
2023-03-02T02:37:49.034Z,23.10
2023-03-02T02:38:49.014Z,23.10
2023-03-02T02:39:49.004Z,23.10
2023-03-02T02:40:48.989Z,23.10
2023-03-02T02:41:48.980Z,23.10
2023-03-02T02:42:48.970Z,23.11
2023-03-02T02:43:48.964Z,23.10
2023-03-02T02:44:48.958Z,23.10
2023-03-02T02:45:49.023Z,23.11
2023-03-02T02:46:49.620Z,23.10
2023-03-02T02:47:48.942Z,23.11
2023-03-02T02:48:48.933Z,23.10
2023-03-02T02:49:48.944Z,23.11
2023-03-02T02:50:48.921Z,23.11
2023-03-02T02:51:48.915Z,23.10
2023-03-02T02:52:48.919Z,23.11
2023-03-02T02:53:48.897Z,23.11
2023-03-02T02:54:48.889Z,23.11
2023-03-02T02:55:48.894Z,23.11
2023-03-02T02:56:48.879Z,23.11
2023-03-02T02:57:48.868Z,23.10
2023-03-02T02:58:48.871Z,23.11
2023-03-02T02:59:48.867Z,23.11
2023-03-02T03:00:48.887Z,23.11
2023-03-02T03:01:48.853Z,23.11
2023-03-02T03:02:48.871Z,23.11
2023-03-02T03:03:48.844Z,23.11
2023-03-02T03:04:48.828Z,23.11
2023-03-02T03:05:48.819Z,23.11
2023-03-02T03:06:48.814Z,23.11
2023-03-02T03:07:48.804Z,23.12
2023-03-02T03:08:48.801Z,23.11
2023-03-02T03:09:48.829Z,23.12
2023-03-02T03:10:48.784Z,23.12
2023-03-02T03:11:48.766Z,23.11
2023-03-02T03:12:48.768Z,23.11
2023-03-02T03:13:48.760Z,23.11
2023-03-02T03:14:48.760Z,23.11
2023-03-02T03:15:48.761Z,23.10
2023-03-02T03:16:48.848Z,23.10
2023-03-02T03:17:48.753Z,23.11
2023-03-02T03:18:48.807Z,23.10
2023-03-02T03:19:48.735Z,23.10
2023-03-02T03:20:48.722Z,23.09
2023-03-02T03:21:48.714Z,23.09
2023-03-02T03:22:48.711Z,23.08
2023-03-02T03:23:48.711Z,23.08
2023-03-02T03:24:48.694Z,23.08
2023-03-02T03:25:48.689Z,23.07
2023-03-02T03:26:48.677Z,23.07
2023-03-02T03:27:48.671Z,23.07
2023-03-02T03:28:48.662Z,23.07
2023-03-02T03:29:48.663Z,23.07
2023-03-02T03:30:48.671Z,23.07
2023-03-02T03:31:48.629Z,23.06
2023-03-02T03:32:48.633Z,23.06
2023-03-02T03:33:48.606Z,23.06
2023-03-02T03:34:48.623Z,23.06
2023-03-02T03:35:48.643Z,23.06
2023-03-02T03:36:48.566Z,23.06
2023-03-02T03:37:48.581Z,23.06
2023-03-02T03:38:48.536Z,23.05
2023-03-02T03:39:48.532Z,23.04
2023-03-02T03:40:48.523Z,23.05
2023-03-02T03:41:48.509Z,23.05
2023-03-02T03:42:48.489Z,23.04
2023-03-02T03:43:48.489Z,23.05
2023-03-02T03:44:48.477Z,23.05
2023-03-02T03:45:48.531Z,23.05
2023-03-02T03:46:48.442Z,23.05
2023-03-02T03:47:48.445Z,23.06
2023-03-02T03:48:48.455Z,23.06
2023-03-02T03:49:48.415Z,23.06
2023-03-02T03:50:48.430Z,23.06
2023-03-02T03:51:48.410Z,23.06
2023-03-02T03:52:48.395Z,23.07
2023-03-02T03:53:48.418Z,23.06
2023-03-02T03:54:48.399Z,23.07
2023-03-02T03:55:48.365Z,23.08
2023-03-02T03:56:48.369Z,23.08
2023-03-02T03:57:48.340Z,23.07
2023-03-02T03:58:48.439Z,23.07
2023-03-02T03:59:48.317Z,23.08
2023-03-02T04:00:48.324Z,23.07
2023-03-02T04:01:48.341Z,23.07
2023-03-02T04:02:48.329Z,23.08
2023-03-02T04:03:48.268Z,23.08
2023-03-02T04:04:48.262Z,23.08
2023-03-02T04:05:48.254Z,23.09
2023-03-02T04:06:48.264Z,23.08
2023-03-02T04:07:48.271Z,23.08
2023-03-02T04:08:48.230Z,23.09
2023-03-02T04:09:48.224Z,23.08
2023-03-02T04:10:48.213Z,23.08
2023-03-02T04:11:48.230Z,23.09
2023-03-02T04:12:48.204Z,23.09
2023-03-02T04:13:48.205Z,23.08
2023-03-02T04:14:48.187Z,23.08
2023-03-02T04:15:48.186Z,23.08
2023-03-02T04:16:48.173Z,23.08
2023-03-02T04:17:48.158Z,23.08
2023-03-02T04:18:48.181Z,23.08
2023-03-02T04:19:48.129Z,23.08
2023-03-02T04:20:48.139Z,23.08
2023-03-02T04:21:48.125Z,23.08
2023-03-02T04:22:48.151Z,23.08
2023-03-02T04:23:48.084Z,23.08
2023-03-02T04:24:48.096Z,23.08
2023-03-02T04:25:48.059Z,23.08
2023-03-02T04:26:48.058Z,23.08
2023-03-02T04:27:48.051Z,23.09
2023-03-02T04:28:48.044Z,23.08
2023-03-02T04:29:48.037Z,23.08
2023-03-02T04:30:48.092Z,23.08
2023-03-02T04:31:48.013Z,23.08
2023-03-02T04:32:48.019Z,23.08
2023-03-02T04:33:48.005Z,23.08
2023-03-02T04:34:48.011Z,23.08
2023-03-02T04:35:48.071Z,23.08
2023-03-02T04:36:47.980Z,23.08
2023-03-02T04:37:47.987Z,23.08
2023-03-02T04:38:47.995Z,23.08
2023-03-02T04:39:48.020Z,23.08
2023-03-02T04:40:47.957Z,23.07
2023-03-02T04:41:47.999Z,23.08
2023-03-02T04:42:47.948Z,23.08
2023-03-02T04:43:47.945Z,23.08
2023-03-02T04:44:48.012Z,23.09
2023-03-02T04:45:47.924Z,23.09
2023-03-02T04:46:47.976Z,23.09
2023-03-02T04:47:47.899Z,23.08
2023-03-02T04:48:47.936Z,23.08
2023-03-02T04:49:47.883Z,23.09
2023-03-02T04:50:47.871Z,23.09
2023-03-02T04:51:47.865Z,23.08
2023-03-02T04:52:47.857Z,23.08
2023-03-02T04:53:47.840Z,23.08
2023-03-02T04:54:47.865Z,23.08
2023-03-02T04:55:47.825Z,23.08
2023-03-02T04:56:47.850Z,23.08
2023-03-02T04:57:47.807Z,23.08
2023-03-02T04:58:47.838Z,23.08
2023-03-02T04:59:47.778Z,23.08
2023-03-02T05:00:47.749Z,23.07
2023-03-02T05:01:47.807Z,23.09
2023-03-02T05:02:47.728Z,23.07
2023-03-02T05:03:47.720Z,23.07
2023-03-02T05:04:47.832Z,23.08
2023-03-02T05:05:47.687Z,23.07
2023-03-02T05:06:47.670Z,23.07
2023-03-02T05:07:47.661Z,23.07
2023-03-02T05:08:47.650Z,23.07
2023-03-02T05:09:47.632Z,23.07
2023-03-02T05:10:47.642Z,23.07
2023-03-02T05:11:47.624Z,23.07
2023-03-02T05:12:47.643Z,23.07
2023-03-02T05:13:47.600Z,23.08
2023-03-02T05:14:47.590Z,23.08
2023-03-02T05:15:47.661Z,23.07
2023-03-02T05:16:47.561Z,23.07
2023-03-02T05:17:47.565Z,23.08
2023-03-02T05:18:47.565Z,23.08
2023-03-02T05:19:47.534Z,23.08
2023-03-02T05:20:47.511Z,23.08
2023-03-02T05:21:47.497Z,23.08
2023-03-02T05:22:47.499Z,23.08
2023-03-02T05:23:47.477Z,23.07
2023-03-02T05:24:47.462Z,23.08
2023-03-02T05:25:47.454Z,23.07
2023-03-02T05:26:47.494Z,23.07
2023-03-02T05:27:47.436Z,23.07
2023-03-02T05:28:47.426Z,23.07
2023-03-02T05:29:47.391Z,23.07
2023-03-02T05:30:47.382Z,23.07
2023-03-02T05:31:47.546Z,23.07
2023-03-02T05:32:47.346Z,23.07
2023-03-02T05:33:47.333Z,23.06
2023-03-02T05:34:47.323Z,23.07
2023-03-02T05:35:47.379Z,23.07
2023-03-02T05:36:47.314Z,23.06
2023-03-02T05:37:47.292Z,23.06
2023-03-02T05:38:47.276Z,23.06
2023-03-02T05:39:47.266Z,23.06
2023-03-02T05:40:47.259Z,23.06
2023-03-02T05:41:47.263Z,23.06
2023-03-02T05:42:47.289Z,23.06
2023-03-02T05:43:47.263Z,23.07
2023-03-02T05:44:47.247Z,23.07
2023-03-02T05:45:47.236Z,23.07
2023-03-02T05:46:47.262Z,23.07
2023-03-02T05:47:47.245Z,23.07
2023-03-02T05:48:47.209Z,23.07
2023-03-02T05:49:47.195Z,23.07
2023-03-02T05:50:47.193Z,23.07
2023-03-02T05:51:47.196Z,23.07
2023-03-02T05:52:47.194Z,23.07
2023-03-02T05:53:47.183Z,23.07
2023-03-02T05:54:47.160Z,23.07
2023-03-02T05:55:47.166Z,23.07
2023-03-02T05:56:49.326Z,23.06
2023-03-02T05:57:47.129Z,23.06
2023-03-02T05:58:47.180Z,23.07
2023-03-02T05:59:47.108Z,23.07
2023-03-02T06:00:47.094Z,23.07
2023-03-02T06:01:47.116Z,23.08
2023-03-02T06:02:47.137Z,23.08
2023-03-02T06:03:47.094Z,23.08
2023-03-02T06:04:47.052Z,23.08
2023-03-02T06:05:47.049Z,23.09
2023-03-02T06:06:47.035Z,23.08
2023-03-02T06:07:47.012Z,23.08
2023-03-02T06:08:46.996Z,23.08
2023-03-02T06:09:47.005Z,23.08
2023-03-02T06:10:46.970Z,23.08
2023-03-02T06:11:46.965Z,23.08
2023-03-02T06:12:46.954Z,23.08
2023-03-02T06:13:47.180Z,23.08
2023-03-02T06:14:46.952Z,23.08
2023-03-02T06:15:46.904Z,23.08
2023-03-02T06:16:46.989Z,23.08
2023-03-02T06:17:47.181Z,23.08
2023-03-02T06:18:46.870Z,23.08
2023-03-02T06:19:46.857Z,23.08
2023-03-02T06:20:46.855Z,23.08
2023-03-02T06:21:46.835Z,23.09
2023-03-02T06:22:47.173Z,23.07
2023-03-02T06:23:46.816Z,23.08
2023-03-02T06:24:46.812Z,23.09
2023-03-02T06:25:46.796Z,23.09
2023-03-02T06:26:46.788Z,23.11
2023-03-02T06:27:46.779Z,23.12
2023-03-02T06:28:52.547Z,23.14
2023-03-02T06:29:46.760Z,23.14
2023-03-02T06:30:46.897Z,23.14
2023-03-02T06:31:46.792Z,23.15
2023-03-02T06:32:46.800Z,23.16
2023-03-02T06:33:46.711Z,23.17
2023-03-02T06:34:46.701Z,23.18
2023-03-02T06:35:46.849Z,23.19
2023-03-02T06:36:46.679Z,23.19
2023-03-02T06:37:47.293Z,23.20
2023-03-02T06:38:46.644Z,23.21
2023-03-02T06:39:46.638Z,23.21
2023-03-02T06:40:46.705Z,23.22
2023-03-02T06:41:46.707Z,23.23
2023-03-02T06:42:46.688Z,23.24
2023-03-02T06:43:46.915Z,23.24
2023-03-02T06:44:46.585Z,23.25
2023-03-02T06:45:46.574Z,23.25
2023-03-02T06:46:46.572Z,23.24
2023-03-02T06:47:46.689Z,23.24
2023-03-02T06:48:46.524Z,23.22
2023-03-02T06:49:46.511Z,23.23
2023-03-02T06:50:46.503Z,23.24
2023-03-02T06:51:46.482Z,23.24
2023-03-02T06:52:47.711Z,23.26
2023-03-02T06:53:46.708Z,23.26
2023-03-02T06:54:46.443Z,23.28
2023-03-02T06:55:46.451Z,23.29
2023-03-02T06:56:46.424Z,23.27
2023-03-02T06:57:46.415Z,23.26
2023-03-02T06:58:46.690Z,23.26
2023-03-02T06:59:46.377Z,23.25
2023-03-02T07:00:46.443Z,23.25
2023-03-02T07:01:46.352Z,23.25
2023-03-02T07:02:46.803Z,23.24
2023-03-02T07:04:18.153Z,23.25
2023-03-02T07:04:46.372Z,23.24
2023-03-02T07:05:46.666Z,23.24
2023-03-02T07:06:46.287Z,23.24
2023-03-02T07:07:46.716Z,23.24
2023-03-02T07:08:46.319Z,23.24
2023-03-02T07:09:46.307Z,23.25
2023-03-02T07:10:46.335Z,23.24
2023-03-02T07:11:46.651Z,23.24
2023-03-02T07:12:46.724Z,23.25
2023-03-02T07:13:46.206Z,23.23
2023-03-02T07:14:46.204Z,23.25
2023-03-02T07:15:46.205Z,23.24
2023-03-02T07:16:46.329Z,23.24
2023-03-02T07:17:46.187Z,23.24
2023-03-02T07:18:46.170Z,23.24
2023-03-02T07:19:46.124Z,23.24
2023-03-02T07:20:46.128Z,23.23
2023-03-02T07:21:46.106Z,23.24
2023-03-02T07:22:46.107Z,23.23
2023-03-02T07:23:46.195Z,23.23
2023-03-02T07:24:46.104Z,23.23
2023-03-02T07:25:46.093Z,23.22
2023-03-02T07:26:46.047Z,23.22
2023-03-02T07:27:46.214Z,23.22
2023-03-02T07:28:46.202Z,23.22
2023-03-02T07:29:46.118Z,23.22
2023-03-02T07:30:46.032Z,23.23
2023-03-02T07:31:46.006Z,23.22
2023-03-02T07:32:45.978Z,23.23
2023-03-02T07:33:46.227Z,23.23
2023-03-02T07:34:45.987Z,23.23
2023-03-02T07:35:45.993Z,23.23
2023-03-02T07:36:46.195Z,23.23
2023-03-02T07:37:46.177Z,23.23
2023-03-02T07:38:46.153Z,23.23
2023-03-02T07:39:46.337Z,23.23
2023-03-02T07:40:45.952Z,23.23
2023-03-02T07:41:45.885Z,23.23
2023-03-02T07:42:45.873Z,23.23
2023-03-02T07:43:46.214Z,23.24
2023-03-02T07:44:45.859Z,23.24
2023-03-02T07:45:46.702Z,23.24
2023-03-02T07:46:45.933Z,23.24
2023-03-02T07:47:45.825Z,23.24
2023-03-02T07:48:45.803Z,23.24
2023-03-02T07:49:49.044Z,23.24
2023-03-02T07:50:49.402Z,23.24
2023-03-02T07:51:45.761Z,23.24
2023-03-02T07:52:45.797Z,23.25
2023-03-02T07:53:46.281Z,23.25
2023-03-02T07:54:45.747Z,23.26
2023-03-02T07:55:46.726Z,23.26
2023-03-02T07:56:45.773Z,23.26
2023-03-02T07:57:45.848Z,23.26
2023-03-02T07:58:45.704Z,23.27
2023-03-02T07:59:45.739Z,23.26
2023-03-02T08:00:45.751Z,23.26
2023-03-02T08:01:45.950Z,23.27
2023-03-02T08:02:45.878Z,23.27
2023-03-02T08:03:45.784Z,23.26
2023-03-02T08:04:45.813Z,23.27
2023-03-02T08:05:45.839Z,23.28
2023-03-02T08:06:45.720Z,23.28
2023-03-02T08:07:45.627Z,23.30
2023-03-02T08:08:45.769Z,23.29
2023-03-02T08:09:45.643Z,23.30
2023-03-02T08:10:45.597Z,23.30
2023-03-02T08:11:45.615Z,23.31
2023-03-02T08:12:45.669Z,23.31
2023-03-02T08:13:45.778Z,23.32
2023-03-02T08:14:45.628Z,23.32
2023-03-02T08:15:45.613Z,23.32
2023-03-02T08:16:45.513Z,23.32
2023-03-02T08:17:45.490Z,23.32
2023-03-02T08:18:46.049Z,23.34
2023-03-02T08:19:45.459Z,23.33
2023-03-02T08:20:45.454Z,23.33
2023-03-02T08:21:45.753Z,23.32
2023-03-02T08:22:45.514Z,23.33
2023-03-02T08:23:45.692Z,23.33
2023-03-02T08:24:45.441Z,23.33
2023-03-02T08:25:45.445Z,23.33
2023-03-02T08:26:45.807Z,23.34
2023-03-02T08:27:45.422Z,23.34
2023-03-02T08:28:48.589Z,23.34
2023-03-02T08:29:45.854Z,23.32
2023-03-02T08:30:45.676Z,23.32
2023-03-02T08:31:45.531Z,23.32
2023-03-02T08:32:45.834Z,23.33
2023-03-02T08:33:45.424Z,23.33
2023-03-02T08:34:45.333Z,23.34
2023-03-02T08:35:45.393Z,23.33
2023-03-02T08:36:45.311Z,23.35
2023-03-02T08:37:45.846Z,23.33
2023-03-02T08:38:45.300Z,23.34
2023-03-02T08:39:45.289Z,23.34
2023-03-02T08:40:45.758Z,23.36
2023-03-02T08:41:45.268Z,23.38
2023-03-02T08:42:45.255Z,23.38
2023-03-02T08:43:45.240Z,23.41
2023-03-02T08:44:45.246Z,23.44
2023-03-02T08:45:45.291Z,23.46
2023-03-02T08:46:45.188Z,23.47
2023-03-02T08:47:45.174Z,23.51
2023-03-02T08:48:45.166Z,23.52
2023-03-02T08:49:46.888Z,23.54
2023-03-02T08:50:45.134Z,23.54
2023-03-02T08:51:45.121Z,23.57
2023-03-02T08:52:45.110Z,23.61
2023-03-02T08:53:45.129Z,23.64
2023-03-02T08:54:45.261Z,23.67
2023-03-02T08:55:45.077Z,23.70
2023-03-02T08:56:45.249Z,23.73
2023-03-02T08:57:45.038Z,23.75
2023-03-02T08:58:45.031Z,23.77
2023-03-02T08:59:45.225Z,23.79
2023-03-02T09:00:45.085Z,23.81
2023-03-02T09:01:45.158Z,23.83
2023-03-02T09:02:45.224Z,23.85
2023-03-02T09:03:44.982Z,23.86
2023-03-02T09:04:45.119Z,23.87
2023-03-02T09:05:44.966Z,23.87
2023-03-02T09:06:45.255Z,23.88
2023-03-02T09:07:45.227Z,23.88
2023-03-02T09:08:44.942Z,23.89
2023-03-02T09:09:45.459Z,23.89
2023-03-02T09:10:45.276Z,23.90
2023-03-02T09:11:44.997Z,23.91
2023-03-02T09:12:44.895Z,23.92
2023-03-02T09:13:44.892Z,23.92
2023-03-02T09:14:44.887Z,23.93
2023-03-02T09:15:45.228Z,23.94
2023-03-02T09:16:44.899Z,23.95
2023-03-02T09:17:44.862Z,23.98
2023-03-02T09:18:44.811Z,23.99
2023-03-02T09:19:44.885Z,23.99
2023-03-02T09:20:44.793Z,23.99
2023-03-02T09:21:44.775Z,24.00
2023-03-02T09:22:44.755Z,24.01
2023-03-02T09:23:44.821Z,24.03
2023-03-02T09:24:45.011Z,24.05
2023-03-02T09:25:46.378Z,24.07
2023-03-02T09:26:44.923Z,24.08
2023-03-02T09:27:45.249Z,24.10
2023-03-02T09:28:44.904Z,24.10
2023-03-02T09:29:44.887Z,24.10
2023-03-02T09:30:44.873Z,24.11
2023-03-02T09:31:44.922Z,24.11
2023-03-02T09:32:45.515Z,24.12
2023-03-02T09:33:44.830Z,24.13
2023-03-02T09:34:44.852Z,24.14
2023-03-02T09:35:45.240Z,24.15
2023-03-02T09:36:44.780Z,24.16
2023-03-02T09:37:44.958Z,24.16
2023-03-02T09:38:44.748Z,24.18
2023-03-02T09:39:44.810Z,24.17
2023-03-02T09:40:44.751Z,24.17
2023-03-02T09:41:44.725Z,24.17
2023-03-02T09:42:44.738Z,24.19
2023-03-02T09:43:44.741Z,24.20
2023-03-02T09:44:44.654Z,24.20
2023-03-02T09:45:44.732Z,24.20
2023-03-02T09:46:44.753Z,24.21
2023-03-02T09:47:44.599Z,24.21
2023-03-02T09:48:44.579Z,24.21
2023-03-02T09:49:44.590Z,24.22
2023-03-02T09:50:44.748Z,24.22
2023-03-02T09:51:44.568Z,24.19
2023-03-02T09:52:44.557Z,24.12
2023-03-02T09:53:44.499Z,24.02
2023-03-02T09:54:44.554Z,23.93
2023-03-02T09:55:45.039Z,23.85
2023-03-02T09:56:44.809Z,23.76
2023-03-02T09:57:44.498Z,23.72
2023-03-02T09:58:44.831Z,23.71
2023-03-02T09:59:44.427Z,23.70
2023-03-02T10:00:44.411Z,23.69
2023-03-02T10:01:44.477Z,23.70
2023-03-02T10:02:44.449Z,23.71
2023-03-02T10:03:44.958Z,23.75
2023-03-02T10:04:44.425Z,23.77
2023-03-02T10:05:44.349Z,23.79
2023-03-02T10:06:44.366Z,23.82
2023-03-02T10:07:44.316Z,23.86
2023-03-02T10:08:44.303Z,23.89
2023-03-02T10:09:44.289Z,23.92
2023-03-02T10:10:44.778Z,23.94
2023-03-02T10:11:44.250Z,23.97
2023-03-02T10:12:44.255Z,24.01
2023-03-02T10:13:46.001Z,24.04
2023-03-02T10:14:44.267Z,24.06
2023-03-02T10:15:44.230Z,24.08
2023-03-02T10:16:44.162Z,24.10
2023-03-02T10:17:44.276Z,24.12
2023-03-02T10:18:44.183Z,24.14
2023-03-02T10:19:44.106Z,24.16
2023-03-02T10:20:44.101Z,24.17
2023-03-02T10:21:44.066Z,24.19
2023-03-02T10:22:44.256Z,24.21
2023-03-02T10:23:44.037Z,24.22
2023-03-02T10:24:44.151Z,24.24
2023-03-02T10:25:44.001Z,24.25
2023-03-02T10:26:44.264Z,24.26
2023-03-02T10:27:44.392Z,24.28
2023-03-02T10:28:43.951Z,24.31
2023-03-02T10:29:44.066Z,24.32
2023-03-02T10:30:43.978Z,24.33
2023-03-02T10:31:45.256Z,24.32
2023-03-02T10:32:43.869Z,24.33
2023-03-02T10:33:43.848Z,24.34
2023-03-02T10:34:44.142Z,24.35
2023-03-02T10:35:43.844Z,24.34
2023-03-02T10:36:44.268Z,24.34
2023-03-02T10:37:43.874Z,24.35
2023-03-02T10:38:43.758Z,24.34
2023-03-02T10:39:43.741Z,24.35
2023-03-02T10:40:43.738Z,24.36
2023-03-02T10:41:43.772Z,24.37
2023-03-02T10:42:43.685Z,24.37
2023-03-02T10:43:43.773Z,24.38
2023-03-02T10:44:43.644Z,24.37
2023-03-02T10:45:44.169Z,24.37
2023-03-02T10:46:43.879Z,24.36
2023-03-02T10:47:43.578Z,24.28
2023-03-02T10:48:49.288Z,24.20
2023-03-02T10:49:43.568Z,24.15
2023-03-02T10:50:43.529Z,24.13
2023-03-02T10:51:43.517Z,24.12
2023-03-02T10:52:51.257Z,24.12
2023-03-02T10:53:43.765Z,24.11
2023-03-02T10:54:43.473Z,24.12
2023-03-02T10:55:43.457Z,24.12
2023-03-02T10:56:43.789Z,24.15
2023-03-02T10:57:43.770Z,24.18
2023-03-02T10:58:43.465Z,24.17
2023-03-02T10:59:43.482Z,24.19
2023-03-02T11:00:43.383Z,24.21
2023-03-02T11:01:43.870Z,24.24
2023-03-02T11:02:43.362Z,24.26
2023-03-02T11:03:43.356Z,24.28
2023-03-02T11:04:43.388Z,24.30
2023-03-02T11:05:43.329Z,24.31
2023-03-02T11:06:43.380Z,24.34
2023-03-02T11:07:43.769Z,24.35
2023-03-02T11:08:43.281Z,24.36
2023-03-02T11:09:43.263Z,24.37
2023-03-02T11:10:43.244Z,24.39
2023-03-02T11:11:43.337Z,24.40
2023-03-02T11:12:43.378Z,24.41
2023-03-02T11:13:43.201Z,24.42
2023-03-02T11:14:43.269Z,24.43
2023-03-02T11:15:43.253Z,24.43
2023-03-02T11:16:44.177Z,24.45
2023-03-02T11:17:43.164Z,24.47
2023-03-02T11:18:43.167Z,24.47
2023-03-02T11:19:43.272Z,24.47
2023-03-02T11:20:43.102Z,24.49
2023-03-02T11:21:43.308Z,24.50
2023-03-02T11:22:43.064Z,24.50
2023-03-02T11:23:43.053Z,24.51
2023-03-02T11:24:43.291Z,24.52
2023-03-02T11:25:43.153Z,24.52
2023-03-02T11:26:43.021Z,24.53
2023-03-02T11:27:43.018Z,24.54
2023-03-02T11:28:43.314Z,24.55
2023-03-02T11:29:42.970Z,24.56
2023-03-02T11:30:42.953Z,24.57
2023-03-02T11:31:43.017Z,24.55
2023-03-02T11:32:43.417Z,24.56
2023-03-02T11:33:43.002Z,24.58
2023-03-02T11:34:43.274Z,24.59
2023-03-02T11:35:42.938Z,24.58
2023-03-02T11:36:43.286Z,24.59
2023-03-02T11:37:42.850Z,24.59
2023-03-02T11:38:43.310Z,24.62
2023-03-02T11:39:50.024Z,24.63
2023-03-02T11:40:43.532Z,24.64
2023-03-02T11:41:43.062Z,24.65
2023-03-02T11:42:43.320Z,24.66
2023-03-02T11:43:43.966Z,24.67
2023-03-02T11:44:42.986Z,24.68
2023-03-02T11:45:42.316Z,24.69
2023-03-02T11:46:43.006Z,24.70
2023-03-02T11:47:45.618Z,24.71
2023-03-02T11:48:42.895Z,24.69
2023-03-02T11:49:42.909Z,24.70
2023-03-02T11:50:42.876Z,24.72
2023-03-02T11:52:43.806Z,24.70
2023-03-02T11:53:42.857Z,24.71
2023-03-02T11:54:42.790Z,24.66
2023-03-02T11:55:42.800Z,24.54
2023-03-02T11:56:42.801Z,24.42
2023-03-02T11:57:42.756Z,24.29
2023-03-02T11:58:42.809Z,24.17
2023-03-02T11:59:42.750Z,24.03
2023-03-02T12:00:42.799Z,23.89
2023-03-02T12:01:42.757Z,23.79
2023-03-02T12:02:42.695Z,23.69
2023-03-02T12:03:42.798Z,23.57
2023-03-02T12:04:43.697Z,23.49
2023-03-02T12:05:42.754Z,23.38
2023-03-02T12:06:42.677Z,23.31
2023-03-02T12:07:45.897Z,23.28
2023-03-02T12:08:42.793Z,23.23
2023-03-02T12:09:42.703Z,23.16
2023-03-02T12:10:42.714Z,23.12
2023-03-02T12:11:42.681Z,23.07
2023-03-02T12:12:42.802Z,23.03
2023-03-02T12:13:42.793Z,23.00
2023-03-02T12:14:42.700Z,23.03
2023-03-02T12:15:42.662Z,23.06
2023-03-02T12:16:42.753Z,23.10
2023-03-02T12:17:42.697Z,23.13
2023-03-02T12:18:42.803Z,23.16
2023-03-02T12:19:42.681Z,23.19
2023-03-02T12:20:42.658Z,23.22
2023-03-02T12:21:42.840Z,23.26
2023-03-02T12:22:42.805Z,23.29
2023-03-02T12:23:42.841Z,23.32
2023-03-02T12:24:42.645Z,23.36
2023-03-02T12:25:42.775Z,23.38
2023-03-02T12:26:42.624Z,23.39
2023-03-02T12:27:42.619Z,23.41
2023-03-02T12:28:42.848Z,23.44
2023-03-02T12:29:42.610Z,23.45
2023-03-02T12:30:42.599Z,23.47
2023-03-02T12:31:42.622Z,23.48
2023-03-02T12:32:42.634Z,23.49
2023-03-02T12:33:42.595Z,23.50
2023-03-02T12:34:42.808Z,23.52
2023-03-02T12:35:42.583Z,23.52
2023-03-02T12:36:42.611Z,23.53
2023-03-02T12:37:42.679Z,23.54
2023-03-02T12:38:42.594Z,23.55
2023-03-02T12:39:42.565Z,23.55
2023-03-02T12:40:42.808Z,23.56
2023-03-02T12:41:42.537Z,23.56
2023-03-02T12:42:42.528Z,23.57
2023-03-02T12:43:42.811Z,23.57
2023-03-02T12:44:42.534Z,23.58
2023-03-02T12:45:42.517Z,23.58
2023-03-02T12:46:42.489Z,23.57
2023-03-02T12:47:42.855Z,23.58
2023-03-02T12:48:42.980Z,23.59
2023-03-02T12:49:42.816Z,23.60
2023-03-02T12:50:42.454Z,23.59
2023-03-02T12:51:42.517Z,23.59
2023-03-02T12:52:42.517Z,23.60
2023-03-02T12:53:42.445Z,23.61
2023-03-02T12:54:42.834Z,23.61
2023-03-02T12:55:42.499Z,23.61
2023-03-02T12:56:42.386Z,23.60
2023-03-02T12:57:42.384Z,23.61
2023-03-02T12:58:42.372Z,23.60
2023-03-02T12:59:42.368Z,23.60
2023-03-02T13:00:43.451Z,23.60
2023-03-02T13:01:42.364Z,23.59
2023-03-02T13:02:42.381Z,23.60
2023-03-02T13:03:42.369Z,23.59
2023-03-02T13:04:42.819Z,23.59
2023-03-02T13:05:42.339Z,23.58
2023-03-02T13:06:42.445Z,23.58
2023-03-02T13:07:42.325Z,23.58
2023-03-02T13:08:42.315Z,23.58
2023-03-02T13:09:54.593Z,23.58
2023-03-02T13:10:42.334Z,23.58
2023-03-02T13:11:44.173Z,23.58
2023-03-02T13:12:42.253Z,23.58
2023-03-02T13:13:42.304Z,23.58
2023-03-02T13:14:42.324Z,23.58
2023-03-02T13:15:42.947Z,23.59
2023-03-02T13:16:42.276Z,23.59
2023-03-02T13:17:42.197Z,23.59
2023-03-02T13:18:42.174Z,23.58
2023-03-02T13:19:42.320Z,23.59
2023-03-02T13:20:42.329Z,23.59
2023-03-02T13:21:42.144Z,23.58
2023-03-02T13:22:42.178Z,23.58
2023-03-02T13:23:42.206Z,23.58
2023-03-02T13:24:42.122Z,23.58
2023-03-02T13:25:43.841Z,23.57
2023-03-02T13:26:42.333Z,23.58
2023-03-02T13:27:42.359Z,23.57
2023-03-02T13:28:42.302Z,23.57
2023-03-02T13:29:42.352Z,23.56
2023-03-02T13:30:42.384Z,23.56
2023-03-02T13:31:42.364Z,23.56
2023-03-02T13:32:42.246Z,23.56
2023-03-02T13:33:42.228Z,23.56
2023-03-02T13:34:42.519Z,23.55
2023-03-02T13:35:42.205Z,23.56
2023-03-02T13:36:42.184Z,23.55
2023-03-02T13:37:42.197Z,23.55
2023-03-02T13:38:42.160Z,23.55
2023-03-02T13:39:42.359Z,23.55
2023-03-02T13:40:42.134Z,23.55